Forside
METAR-TAF:

METAR-TAF

Lufthavne :

Farnborough, England

Breddekreds: 51-17N, længdekreds: 000-46W, højde: 65 m

Aktuelle vejr

Denne rapport blev lavet for 40 minutter siden, kl. 02:20 UTC
Vind 4 kt fra sydvest
Temperatur 9°C
Fugtighed 81%
Tryk 1034 hPa
Sigt 10 km eller mere

METAR: EGLF 250220Z AUTO 23004KT 9999 NCD 09/06 Q1034

Tid: 04:00 (03:00 UTC)

Vejrudsigter

Denne rapport blev lavet for 13 timer og 5 minutter siden, kl. 13:55 UTC
Foreløbig gælder fra 24 på 15 UTC til 24 på 19 UTC
Vind 7 kt fra vestnordvest
Sigt 10 km eller mere
Nogle få skyer i en højde af 4500 ft

TAF: EGLF 241355Z 2415/2419 29007KT 9999 FEW045

Vejrobservationer og prognoser fra mere end 4000 lufthavne (METAR og TAF).

De gule og røde prikker repræsenterer de meteorologiske stationer.

Flyt musen over at se navnet på stationen.

Så klik over at se vejr observationer og prognoser.

At skifte det kort: Klik på de grønne knapper med et sort kors for at zoome ind; på den grønne knap med en bindestreg for at zoome ud; eller på de grønne pile for tilstødende kort.


METAR-TAF: